createdAt,value
2018-07-25T00:02:05.547Z,68.42
2018-07-25T00:04:33.636Z,68.74
2018-07-25T00:07:01.711Z,68.83
2018-07-25T00:09:29.785Z,68.74
2018-07-25T00:11:57.976Z,68.65
2018-07-25T00:14:26.051Z,68.46
2018-07-25T00:16:54.125Z,68.61
2018-07-25T00:19:22.200Z,68.46
2018-07-25T00:21:50.332Z,68.17
2018-07-25T00:24:18.547Z,68.27
2018-07-25T00:26:46.653Z,68.56
2018-07-25T00:29:14.730Z,68.60
2018-07-25T00:31:42.808Z,68.71
2018-07-25T00:34:10.877Z,68.64
2018-07-25T00:36:39.110Z,69.50
2018-07-25T00:39:07.886Z,68.83
2018-07-25T00:41:35.997Z,69.03
2018-07-25T00:44:04.143Z,68.40
2018-07-25T00:46:32.215Z,68.52
2018-07-25T00:49:00.291Z,69.02
2018-07-25T00:51:28.366Z,68.97
2018-07-25T00:53:56.440Z,68.81
2018-07-25T00:56:24.531Z,69.03
2018-07-25T00:58:52.592Z,68.40
2018-07-25T01:01:20.687Z,68.77
2018-07-25T01:03:48.748Z,69.06
2018-07-25T01:06:16.856Z,68.89
2018-07-25T01:08:44.915Z,68.19
2018-07-25T01:11:13.005Z,68.38
2018-07-25T01:13:41.066Z,68.72
2018-07-25T01:16:09.141Z,68.92
2018-07-25T01:18:37.235Z,69.88
2018-07-25T01:21:05.317Z,69.49
2018-07-25T01:23:33.375Z,69.97
2018-07-25T01:26:01.478Z,70.64
2018-07-25T01:28:29.562Z,70.60
2018-07-25T01:30:57.645Z,70.57
2018-07-25T01:33:25.738Z,70.54
2018-07-25T01:35:53.830Z,70.99
2018-07-25T01:38:21.903Z,70.56
2018-07-25T01:40:50.004Z,71.30
2018-07-25T01:43:18.075Z,71.69
2018-07-25T01:45:46.173Z,71.40
2018-07-25T01:48:14.262Z,71.52
2018-07-25T01:50:42.337Z,71.47
2018-07-25T01:53:10.400Z,71.79
2018-07-25T01:55:38.566Z,71.52
2018-07-25T01:58:06.707Z,72.19
2018-07-25T02:00:34.775Z,72.58
2018-07-25T02:03:02.836Z,72.00
2018-07-25T02:05:30.920Z,71.42
2018-07-25T02:07:58.992Z,71.72
2018-07-25T02:10:27.059Z,72.64
2018-07-25T02:12:55.268Z,72.94
2018-07-25T02:15:23.572Z,72.35
2018-07-25T02:17:51.718Z,72.35
2018-07-25T02:20:19.830Z,72.50
2018-07-25T02:22:47.904Z,72.83
2018-07-25T02:25:15.977Z,72.24
2018-07-25T02:27:44.042Z,72.07
2018-07-25T02:30:12.107Z,72.06
2018-07-25T02:32:40.194Z,72.58
2018-07-25T02:35:08.267Z,72.97
2018-07-25T02:37:36.376Z,72.95
2018-07-25T02:40:04.532Z,73.16
2018-07-25T02:42:32.619Z,73.54
2018-07-25T02:45:00.669Z,73.46
2018-07-25T02:47:28.731Z,73.87
2018-07-25T02:49:56.811Z,74.46
2018-07-25T02:52:24.887Z,74.28
2018-07-25T02:54:52.945Z,74.40
2018-07-25T02:57:21.024Z,74.35
2018-07-25T02:59:49.088Z,74.91
2018-07-25T03:02:17.165Z,74.89
2018-07-25T03:04:45.257Z,74.28
2018-07-25T03:07:13.356Z,75.14
2018-07-25T03:09:41.499Z,75.43
2018-07-25T03:12:09.609Z,75.96
2018-07-25T03:14:37.675Z,75.48
2018-07-25T03:17:05.753Z,76.03
2018-07-25T03:19:33.821Z,76.43
2018-07-25T03:22:01.913Z,76.00
2018-07-25T03:24:29.984Z,76.35
2018-07-25T03:26:58.077Z,76.22
2018-07-25T03:29:26.155Z,76.19
2018-07-25T03:31:54.272Z,75.80
2018-07-25T03:34:22.406Z,75.51
2018-07-25T03:36:50.514Z,76.09
2018-07-25T03:39:18.594Z,75.56
2018-07-25T03:41:46.731Z,75.83
2018-07-25T03:44:14.813Z,76.50
2018-07-25T03:46:42.894Z,76.08
2018-07-25T03:49:10.962Z,77.36
2018-07-25T03:51:39.063Z,77.25
2018-07-25T03:54:07.136Z,77.14
2018-07-25T03:56:35.221Z,76.82
2018-07-25T03:59:03.362Z,77.52
2018-07-25T04:01:31.468Z,77.53
2018-07-25T04:03:59.556Z,77.43
2018-07-25T04:06:27.643Z,76.84
2018-07-25T04:08:55.936Z,77.09
2018-07-25T04:11:24.041Z,77.18
2018-07-25T04:13:52.104Z,77.24
2018-07-25T04:16:20.184Z,77.28
2018-07-25T04:18:48.281Z,78.06
2018-07-25T04:21:16.400Z,77.26
2018-07-25T04:23:44.471Z,77.87
2018-07-25T04:26:12.556Z,77.88
2018-07-25T04:28:40.634Z,77.52
2018-07-25T04:31:08.727Z,78.09
2018-07-25T04:33:36.851Z,77.70
2018-07-25T04:36:04.933Z,77.58
2018-07-25T04:38:33.026Z,78.33
2018-07-25T04:41:01.128Z,77.58
2018-07-25T04:43:35.775Z,78.19
2018-07-25T04:46:03.860Z,78.00
2018-07-25T04:48:31.936Z,77.36
2018-07-25T04:51:00.040Z,77.60
2018-07-25T04:53:28.157Z,77.19
2018-07-25T04:55:56.233Z,76.93
2018-07-25T04:58:24.308Z,76.79
2018-07-25T05:00:52.375Z,76.15
2018-07-25T05:03:20.492Z,76.00
2018-07-25T05:05:48.632Z,76.53
2018-07-25T05:08:16.727Z,76.20
2018-07-25T05:10:44.815Z,76.22
2018-07-25T05:13:12.891Z,76.17
2018-07-25T05:15:40.964Z,75.88
2018-07-25T05:18:09.098Z,75.30
2018-07-25T05:20:37.187Z,75.72
2018-07-25T05:23:05.348Z,76.59
2018-07-25T05:25:33.428Z,76.29
2018-07-25T05:28:01.535Z,75.74
2018-07-25T05:30:29.745Z,75.27
2018-07-25T05:32:57.879Z,75.15
2018-07-25T05:35:25.955Z,75.01
2018-07-25T05:37:54.044Z,74.48
2018-07-25T05:40:22.111Z,74.12
2018-07-25T05:42:50.210Z,73.69
2018-07-25T05:45:18.295Z,73.67
2018-07-25T05:47:46.407Z,73.72
2018-07-25T05:50:14.473Z,74.98
2018-07-25T05:52:42.539Z,75.13
2018-07-25T05:55:10.607Z,75.13
2018-07-25T05:57:38.760Z,75.14
2018-07-25T06:00:06.930Z,74.64
2018-07-25T06:02:35.048Z,74.54
2018-07-25T06:05:03.150Z,74.99
2018-07-25T06:07:31.247Z,75.22
2018-07-25T06:09:59.319Z,75.07
2018-07-25T06:12:27.406Z,74.62
2018-07-25T06:14:55.472Z,74.74
2018-07-25T06:17:23.568Z,75.24
2018-07-25T06:19:51.700Z,75.04
2018-07-25T06:22:19.916Z,74.08
2018-07-25T06:24:48.019Z,73.65
2018-07-25T06:27:16.118Z,73.82
2018-07-25T06:29:44.183Z,73.41
2018-07-25T06:32:12.369Z,73.38
2018-07-25T06:34:40.503Z,73.65
2018-07-25T06:37:08.570Z,73.80
2018-07-25T06:39:36.776Z,73.49
2018-07-25T06:42:04.926Z,73.56
2018-07-25T06:44:33.053Z,73.47
2018-07-25T06:47:01.288Z,73.74
2018-07-25T06:49:29.375Z,73.71
2018-07-25T06:51:57.481Z,73.54
2018-07-25T06:54:25.575Z,73.51
2018-07-25T06:56:53.696Z,73.18
2018-07-25T06:59:21.814Z,72.91
2018-07-25T07:01:50.126Z,73.43
2018-07-25T07:04:18.266Z,72.57
2018-07-25T07:06:47.021Z,70.87
2018-07-25T07:09:15.168Z,71.89
2018-07-25T07:11:43.367Z,71.95
2018-07-25T07:14:11.446Z,71.50
2018-07-25T07:16:39.534Z,69.17
2018-07-25T07:19:07.653Z,70.47
2018-07-25T07:21:36.932Z,70.48
2018-07-25T07:24:05.144Z,67.12
2018-07-25T07:26:33.178Z,65.42
2018-07-25T07:29:02.549Z,65.97
2018-07-25T07:31:30.736Z,65.80
2018-07-25T07:33:58.803Z,63.26
2018-07-25T07:36:26.887Z,62.61
2018-07-25T07:38:55.022Z,62.54
2018-07-25T07:41:23.117Z,65.22
2018-07-25T07:43:51.233Z,61.28
2018-07-25T07:46:19.346Z,62.44
2018-07-25T07:48:47.568Z,61.70
2018-07-25T07:51:15.687Z,60.48
2018-07-25T07:53:43.775Z,60.89
2018-07-25T07:56:11.844Z,59.94
2018-07-25T07:58:39.919Z,59.28
2018-07-25T08:01:08.001Z,57.95
2018-07-25T08:03:36.203Z,58.57
2018-07-25T08:06:04.399Z,56.09
2018-07-25T08:08:32.503Z,55.93
2018-07-25T08:11:00.592Z,54.03
2018-07-25T08:13:28.680Z,52.12
2018-07-25T08:15:58.029Z,52.97
2018-07-25T08:18:26.105Z,50.62
2018-07-25T08:20:54.223Z,54.11
2018-07-25T08:23:22.336Z,52.04
2018-07-25T08:25:50.553Z,51.46
2018-07-25T08:28:18.658Z,51.72
2018-07-25T08:30:46.788Z,51.47
2018-07-25T08:33:15.011Z,53.92
2018-07-25T08:35:43.134Z,51.70
2018-07-25T08:38:11.267Z,49.02
2018-07-25T08:40:39.341Z,48.04
2018-07-25T08:43:07.418Z,47.37
2018-07-25T08:45:35.586Z,47.22
2018-07-25T08:48:03.683Z,46.29
2018-07-25T08:50:31.764Z,46.68
2018-07-25T08:52:59.959Z,45.81
2018-07-25T08:55:28.026Z,44.54
2018-07-25T08:57:56.091Z,44.33
2018-07-25T09:00:24.194Z,45.37
2018-07-25T09:02:52.256Z,45.24
2018-07-25T09:05:20.316Z,44.52
2018-07-25T09:07:48.409Z,44.75
2018-07-25T09:10:16.536Z,44.05
2018-07-25T09:12:44.746Z,44.45
2018-07-25T09:15:13.483Z,43.87
2018-07-25T09:17:41.587Z,43.40
2018-07-25T09:20:09.966Z,44.03
2018-07-25T09:22:38.075Z,43.63
2018-07-25T09:25:06.449Z,43.80
2018-07-25T09:27:34.506Z,44.10
2018-07-25T09:30:02.589Z,45.14
2018-07-25T09:32:30.642Z,43.32
2018-07-25T09:34:58.714Z,43.68
2018-07-25T09:37:26.920Z,44.43
2018-07-25T09:39:55.036Z,42.93
2018-07-25T09:42:23.108Z,41.65
2018-07-25T09:44:52.045Z,42.14
2018-07-25T09:47:20.122Z,42.27
2018-07-25T09:49:48.204Z,41.05
2018-07-25T09:52:16.270Z,42.69
2018-07-25T09:54:44.522Z,41.65
2018-07-25T09:57:12.583Z,42.13
2018-07-25T09:59:40.667Z,41.65
2018-07-25T10:02:08.731Z,40.66
2018-07-25T10:04:36.790Z,39.89
2018-07-25T10:07:04.877Z,38.88
2018-07-25T10:09:32.982Z,39.14
2018-07-25T10:12:01.561Z,37.69
2018-07-25T10:14:29.638Z,38.70
2018-07-25T10:16:57.707Z,38.08
2018-07-25T10:19:25.786Z,37.68
2018-07-25T10:21:54.056Z,37.60
2018-07-25T10:24:22.212Z,37.13
2018-07-25T10:26:50.335Z,35.63
2018-07-25T10:29:18.378Z,33.97
2018-07-25T10:31:46.446Z,33.97
2018-07-25T10:34:14.698Z,34.50
2018-07-25T10:36:42.963Z,34.52
2018-07-25T10:39:11.217Z,33.56
2018-07-25T10:41:39.255Z,33.47
2018-07-25T10:44:07.362Z,33.32
2018-07-25T10:46:35.534Z,32.39
2018-07-25T10:49:04.010Z,33.19
2018-07-25T10:51:32.106Z,32.83
2018-07-25T10:54:00.344Z,32.20
2018-07-25T10:56:28.427Z,31.21
2018-07-25T10:58:56.655Z,30.81
2018-07-25T11:01:25.574Z,31.39
2018-07-25T11:03:53.688Z,31.88
2018-07-25T11:06:21.771Z,32.25
2018-07-25T11:08:49.868Z,32.40
2018-07-25T11:11:18.296Z,31.56
2018-07-25T11:13:46.581Z,30.85
2018-07-25T11:16:14.731Z,30.69
2018-07-25T11:18:43.069Z,30.76
2018-07-25T11:21:11.327Z,30.10
2018-07-25T11:23:39.467Z,30.49
2018-07-25T11:26:07.540Z,29.42
2018-07-25T11:28:35.751Z,30.07
2018-07-25T11:31:04.268Z,29.39
2018-07-25T11:33:32.325Z,29.56
2018-07-25T11:36:00.403Z,29.95
2018-07-25T11:38:28.467Z,30.44
2018-07-25T11:40:56.583Z,30.67
2018-07-25T11:43:24.656Z,30.80
2018-07-25T11:45:52.728Z,30.96
2018-07-25T11:48:20.789Z,27.98
2018-07-25T11:50:48.876Z,28.79
2018-07-25T11:53:16.956Z,28.58
2018-07-25T11:55:45.127Z,28.45
2018-07-25T11:58:13.142Z,29.00
2018-07-25T12:00:41.217Z,27.67
2018-07-25T12:03:09.298Z,27.87
2018-07-25T12:05:37.377Z,27.88
2018-07-25T12:08:05.726Z,27.95
2018-07-25T12:10:33.859Z,28.08
2018-07-25T12:13:01.992Z,27.63
2018-07-25T12:15:30.075Z,27.83
2018-07-25T12:17:58.191Z,28.61
2018-07-25T12:20:26.295Z,27.77
2018-07-25T12:22:54.379Z,28.04
2018-07-25T12:25:22.706Z,27.58
2018-07-25T12:27:50.840Z,27.86
2018-07-25T12:30:18.991Z,27.84
2018-07-25T12:32:47.359Z,27.79
2018-07-25T12:35:15.662Z,28.29
2018-07-25T12:37:43.774Z,27.67
2018-07-25T12:40:11.913Z,26.90
2018-07-25T12:42:40.016Z,27.53
2018-07-25T12:45:08.303Z,27.11
2018-07-25T12:47:36.373Z,26.97
2018-07-25T12:50:04.579Z,26.51
2018-07-25T12:52:32.657Z,26.34
2018-07-25T12:55:00.760Z,26.33
2018-07-25T12:57:28.894Z,25.87
2018-07-25T12:59:57.022Z,26.67
2018-07-25T13:02:25.230Z,26.08
2018-07-25T13:04:53.335Z,27.04
2018-07-25T13:07:21.680Z,26.85
2018-07-25T13:09:49.751Z,26.14
2018-07-25T13:12:17.981Z,26.73
2018-07-25T13:14:46.113Z,27.02
2018-07-25T13:17:14.206Z,28.10
2018-07-25T13:19:42.287Z,26.92
2018-07-25T13:22:10.448Z,27.66
2018-07-25T13:24:38.528Z,27.48
2018-07-25T13:27:06.660Z,27.17
2018-07-25T13:29:34.765Z,26.86
2018-07-25T13:32:02.856Z,26.39
2018-07-25T13:34:30.928Z,27.02
2018-07-25T13:36:59.055Z,27.23
2018-07-25T13:39:27.158Z,26.87
2018-07-25T13:41:55.314Z,26.55
2018-07-25T13:44:23.976Z,25.64
2018-07-25T13:46:52.200Z,26.08
2018-07-25T13:49:20.295Z,25.98
2018-07-25T13:51:48.423Z,26.06
2018-07-25T13:54:16.641Z,25.94
2018-07-25T13:56:45.842Z,25.35
2018-07-25T13:59:13.937Z,26.03
2018-07-25T14:01:42.661Z,26.96
2018-07-25T14:04:11.217Z,25.86
2018-07-25T14:06:40.078Z,26.81
2018-07-25T14:09:09.649Z,25.38
2018-07-25T14:11:38.484Z,25.73
2018-07-25T14:14:06.660Z,24.51
2018-07-25T14:16:34.842Z,24.84
2018-07-25T14:19:02.968Z,24.85
2018-07-25T14:21:31.395Z,24.31
2018-07-25T14:23:59.797Z,24.88
2018-07-25T14:26:27.809Z,25.29
2018-07-25T14:28:56.063Z,25.28
2018-07-25T14:31:24.708Z,24.99
2018-07-25T14:33:52.826Z,24.20
2018-07-25T14:36:20.964Z,24.89
2018-07-25T14:38:49.460Z,25.84
2018-07-25T14:41:17.590Z,25.32
2018-07-25T14:43:45.976Z,25.93
2018-07-25T14:46:14.237Z,25.78
2018-07-25T14:48:43.558Z,25.55
2018-07-25T14:51:12.763Z,26.05
2018-07-25T14:53:41.228Z,25.78
2018-07-25T14:56:09.814Z,26.09
2018-07-25T14:58:37.921Z,26.31
2018-07-25T15:01:06.401Z,26.84
2018-07-25T15:03:34.656Z,26.38
2018-07-25T15:06:02.855Z,26.88
2018-07-25T15:08:31.362Z,26.63
2018-07-25T15:10:59.591Z,26.99
2018-07-25T15:13:27.993Z,26.77
2018-07-25T15:15:56.191Z,26.39
2018-07-25T15:18:24.790Z,25.30
2018-07-25T15:20:53.091Z,25.49
2018-07-25T15:23:32.746Z,25.91
2018-07-25T15:26:00.886Z,26.63
2018-07-25T15:28:29.220Z,27.13
2018-07-25T15:30:57.618Z,25.92
2018-07-25T15:33:26.619Z,25.57
2018-07-25T15:35:54.788Z,25.58
2018-07-25T15:38:23.024Z,25.73
2018-07-25T15:40:51.154Z,26.21
2018-07-25T15:43:19.359Z,26.44
2018-07-25T15:45:47.640Z,25.89
2018-07-25T15:48:15.999Z,25.48
2018-07-25T15:50:44.296Z,26.13
2018-07-25T15:53:13.482Z,25.57
2018-07-25T15:55:41.698Z,26.31
2018-07-25T15:58:10.187Z,26.17
2018-07-25T16:00:38.324Z,26.00
2018-07-25T16:03:06.426Z,25.99
2018-07-25T16:05:34.674Z,26.97
2018-07-25T16:08:02.878Z,26.75
2018-07-25T16:10:30.996Z,26.54
2018-07-25T16:12:59.199Z,26.87
2018-07-25T16:15:27.485Z,27.39
2018-07-25T16:17:55.644Z,26.82
2018-07-25T16:20:23.707Z,26.66
2018-07-25T16:22:51.800Z,26.58
2018-07-25T16:25:19.863Z,27.47
2018-07-25T16:27:47.946Z,27.32
2018-07-25T16:30:18.355Z,27.62
2018-07-25T16:32:46.450Z,28.01
2018-07-25T16:35:14.584Z,27.53
2018-07-25T16:37:42.696Z,28.40
2018-07-25T16:40:10.987Z,27.44
2018-07-25T16:42:39.119Z,28.77
2018-07-25T16:45:07.295Z,28.10
2018-07-25T16:47:35.415Z,27.48
2018-07-25T16:50:03.526Z,28.35
2018-07-25T16:52:31.651Z,28.92
2018-07-25T16:54:59.730Z,27.11
2018-07-25T16:57:28.145Z,26.96
2018-07-25T16:59:56.224Z,27.06
2018-07-25T17:02:24.400Z,28.34
2018-07-25T17:04:52.523Z,29.47
2018-07-25T17:07:20.646Z,29.31
2018-07-25T17:09:48.749Z,28.62
2018-07-25T17:12:16.847Z,28.66
2018-07-25T17:14:45.023Z,29.23
2018-07-25T17:17:13.102Z,31.96
2018-07-25T17:19:41.303Z,31.97
2018-07-25T17:22:09.549Z,37.62
2018-07-25T17:24:37.631Z,44.45
2018-07-25T17:27:05.752Z,47.30
2018-07-25T17:29:33.875Z,57.81
2018-07-25T17:32:01.998Z,61.15
2018-07-25T17:34:30.138Z,65.70
2018-07-25T17:36:58.295Z,70.74
2018-07-25T17:39:27.118Z,73.46
2018-07-25T17:41:55.175Z,73.62
2018-07-25T17:44:23.289Z,73.41
2018-07-25T17:46:51.520Z,72.84
2018-07-25T17:49:19.627Z,70.71
2018-07-25T17:51:47.765Z,72.75
2018-07-25T17:54:15.886Z,74.26
2018-07-25T17:56:44.110Z,73.69
2018-07-25T17:59:12.256Z,72.44
2018-07-25T18:01:40.483Z,74.08
2018-07-25T18:04:08.623Z,75.74
2018-07-25T18:06:36.791Z,76.57
2018-07-25T18:09:07.321Z,78.66
2018-07-25T18:11:35.724Z,79.57
2018-07-25T18:14:09.187Z,76.94
2018-07-25T18:16:37.378Z,77.64
2018-07-25T18:19:05.516Z,77.18
2018-07-25T18:21:33.740Z,78.67
2018-07-25T18:24:01.867Z,77.97
2018-07-25T18:26:30.070Z,79.20
2018-07-25T18:28:58.294Z,79.87
2018-07-25T18:31:26.435Z,77.08
2018-07-25T18:33:54.619Z,78.48
2018-07-25T18:36:22.765Z,77.97
2018-07-25T18:38:50.914Z,76.24
2018-07-25T18:41:19.045Z,76.50
2018-07-25T18:43:47.306Z,77.48
2018-07-25T18:46:15.579Z,78.68
2018-07-25T18:48:44.209Z,79.27
2018-07-25T18:51:12.420Z,79.64
2018-07-25T18:53:41.259Z,79.51
2018-07-25T18:56:09.439Z,79.75
2018-07-25T18:58:37.610Z,79.91
2018-07-25T19:01:06.476Z,81.66
2018-07-25T19:03:34.773Z,81.37
2018-07-25T19:06:03.033Z,81.82
2018-07-25T19:08:31.317Z,82.17
2018-07-25T19:10:59.463Z,82.82
2018-07-25T19:13:34.100Z,82.60
2018-07-25T19:16:03.171Z,82.35
2018-07-25T19:18:31.652Z,83.08
2018-07-25T19:21:00.011Z,83.30
2018-07-25T19:23:28.789Z,83.26
2018-07-25T19:25:57.098Z,83.50
2018-07-25T19:28:25.642Z,84.20
2018-07-25T19:30:53.757Z,84.67
2018-07-25T19:33:21.880Z,84.29
2018-07-25T19:35:50.016Z,84.51
2018-07-25T19:38:18.175Z,84.26
2018-07-25T19:40:46.857Z,84.23
2018-07-25T19:43:28.123Z,84.23
2018-07-25T19:45:56.574Z,85.17
2018-07-25T19:48:31.646Z,86.14
2018-07-25T19:50:59.920Z,86.71
2018-07-25T19:53:28.073Z,85.75
2018-07-25T19:55:56.815Z,86.15
2018-07-25T19:58:25.680Z,86.78
2018-07-25T20:00:54.005Z,86.82
2018-07-25T20:03:22.707Z,86.86
2018-07-25T20:05:54.267Z,87.56
2018-07-25T20:08:23.248Z,87.01
2018-07-25T20:10:52.520Z,85.72
2018-07-25T20:13:20.685Z,86.91
2018-07-25T20:15:54.123Z,88.12
2018-07-25T20:18:22.237Z,88.56
2018-07-25T20:20:50.458Z,88.72
2018-07-25T20:23:19.954Z,88.00
2018-07-25T20:25:48.049Z,88.93
2018-07-25T20:28:16.232Z,88.65
2018-07-25T20:30:44.341Z,88.53
2018-07-25T20:33:12.517Z,89.75
2018-07-25T20:36:51.826Z,90.42
2018-07-25T20:39:20.046Z,89.71
2018-07-25T20:41:48.281Z,90.45
2018-07-25T20:44:16.510Z,90.08
2018-07-25T20:46:44.703Z,84.06
2018-07-25T20:49:15.199Z,71.40
2018-07-25T20:51:43.345Z,65.32
2018-07-25T20:54:11.630Z,62.97
2018-07-25T20:56:39.873Z,62.49
2018-07-25T20:59:08.691Z,60.45
2018-07-25T21:01:36.852Z,59.42
2018-07-25T21:04:04.983Z,59.14
2018-07-25T21:06:33.111Z,58.66
2018-07-25T21:09:01.393Z,59.10
2018-07-25T21:11:29.537Z,58.95
2018-07-25T21:13:57.766Z,58.13
2018-07-25T21:16:26.095Z,58.59
2018-07-25T21:18:54.206Z,58.92
2018-07-25T21:21:22.532Z,57.77
2018-07-25T21:23:50.589Z,59.05
2018-07-25T21:26:18.745Z,59.61
2018-07-25T21:28:46.986Z,58.84
2018-07-25T21:31:15.150Z,58.98
2018-07-25T21:33:43.333Z,60.50
2018-07-25T21:36:11.484Z,60.15
2018-07-25T21:38:39.623Z,59.73
2018-07-25T21:41:07.764Z,59.94
2018-07-25T21:43:35.937Z,64.05
2018-07-25T21:46:04.165Z,64.50
2018-07-25T21:48:32.577Z,62.06
2018-07-25T21:51:01.516Z,60.20
2018-07-25T21:53:29.649Z,60.42
2018-07-25T21:55:57.781Z,65.37
2018-07-25T21:58:25.915Z,64.72
2018-07-25T22:00:58.377Z,61.06
2018-07-25T22:03:26.571Z,59.31
2018-07-25T22:05:54.745Z,59.57
2018-07-25T22:08:22.867Z,58.56
2018-07-25T22:10:51.015Z,58.76
2018-07-25T22:13:19.202Z,59.38
2018-07-25T22:15:47.396Z,59.12
2018-07-25T22:18:16.457Z,59.15
2018-07-25T22:20:44.617Z,58.26
2018-07-25T22:23:12.765Z,59.13
2018-07-25T22:25:41.145Z,58.63
2018-07-25T22:28:09.339Z,57.85
2018-07-25T22:30:37.669Z,58.39
2018-07-25T22:33:06.216Z,58.24
2018-07-25T22:35:34.990Z,57.93
2018-07-25T22:38:03.307Z,58.91
2018-07-25T22:40:39.965Z,59.29
2018-07-25T22:43:08.420Z,60.03
2018-07-25T22:45:36.842Z,61.02
2018-07-25T22:48:05.749Z,60.56
2018-07-25T22:50:36.431Z,59.85
2018-07-25T22:53:12.760Z,58.91
2018-07-25T22:55:41.444Z,59.99
2018-07-25T22:58:09.655Z,59.34
2018-07-25T23:00:38.222Z,59.36
2018-07-25T23:03:06.393Z,58.21
2018-07-25T23:05:35.824Z,58.37
2018-07-25T23:08:04.623Z,58.77
2018-07-25T23:10:34.408Z,58.78
2018-07-25T23:13:14.179Z,58.69
2018-07-25T23:15:42.380Z,59.14
2018-07-25T23:18:10.865Z,59.57
2018-07-25T23:20:39.160Z,59.68
2018-07-25T23:23:08.123Z,59.94
2018-07-25T23:25:37.283Z,59.64
2018-07-25T23:28:06.033Z,60.30
2018-07-25T23:30:34.445Z,59.70
2018-07-25T23:33:02.649Z,59.50
2018-07-25T23:35:30.811Z,59.17
2018-07-25T23:37:58.851Z,59.03
2018-07-25T23:40:26.959Z,59.08
2018-07-25T23:42:55.023Z,58.67
2018-07-25T23:45:23.111Z,58.75
2018-07-25T23:47:51.187Z,59.13
2018-07-25T23:50:19.261Z,58.33
2018-07-25T23:52:47.350Z,58.93
2018-07-25T23:55:15.430Z,58.82
2018-07-25T23:57:43.506Z,58.63
